createdAt,value
2022-10-03T00:25:41.440Z,65.98
2022-10-03T00:33:55.445Z,65.71
2022-10-03T00:36:52.329Z,65.41
2022-10-03T00:45:07.508Z,65.04
2022-10-03T00:53:10.319Z,64.15
2022-10-03T01:18:20.236Z,64.27
2022-10-03T01:20:59.662Z,65.03
2022-10-03T01:23:44.124Z,65.35
2022-10-03T01:26:38.227Z,65.65
2022-10-03T01:29:28.440Z,64.78
2022-10-03T01:32:03.945Z,65.37
2022-10-03T01:34:35.474Z,64.86
2022-10-03T01:37:12.415Z,65.03
2022-10-03T01:39:48.612Z,65.14
2022-10-03T01:42:21.697Z,64.95
2022-10-03T01:45:05.216Z,65.16
2022-10-03T01:47:40.599Z,65.54
2022-10-03T01:50:17.213Z,65.40
2022-10-03T01:52:54.859Z,65.86
2022-10-03T01:55:29.687Z,66.12
2022-10-03T01:58:02.142Z,66.43
2022-10-03T02:00:41.494Z,65.65
2022-10-03T02:03:16.372Z,65.55
2022-10-03T02:06:04.230Z,65.55
2022-10-03T02:08:47.097Z,65.32
2022-10-03T02:11:31.218Z,65.74
2022-10-03T02:14:08.227Z,65.81
2022-10-03T02:16:44.933Z,65.73
2022-10-03T02:19:21.347Z,65.55
2022-10-03T02:21:54.766Z,65.61
2022-10-03T02:24:39.649Z,65.84
2022-10-03T02:27:22.035Z,65.81
2022-10-03T02:30:07.230Z,65.83
2022-10-03T02:33:00.427Z,65.91
2022-10-03T02:35:52.533Z,65.65
2022-10-03T02:38:32.524Z,65.72
2022-10-03T02:41:32.932Z,65.97
2022-10-03T02:44:36.173Z,66.11
2022-10-03T02:47:35.325Z,66.13
2022-10-03T02:50:37.502Z,65.89
2022-10-03T02:53:56.506Z,66.07
2022-10-03T02:56:59.665Z,66.07
2022-10-03T02:59:58.383Z,66.30
2022-10-03T03:02:57.403Z,66.29
2022-10-03T03:05:54.213Z,66.59
2022-10-03T03:08:50.474Z,66.35
2022-10-03T03:11:39.630Z,66.33
2022-10-03T03:14:42.685Z,66.82
2022-10-03T03:17:26.087Z,66.48
2022-10-03T03:20:22.888Z,66.43
2022-10-03T03:23:06.921Z,66.02
2022-10-03T03:25:59.424Z,65.89
2022-10-03T03:28:41.382Z,65.95
2022-10-03T03:31:13.290Z,65.84
2022-10-03T03:33:55.641Z,65.84
2022-10-03T03:36:35.029Z,65.84
2022-10-03T03:39:19.669Z,65.78
2022-10-03T03:42:13.051Z,65.86
2022-10-03T03:44:56.595Z,65.65
2022-10-03T03:47:38.832Z,65.90
2022-10-03T03:50:30.184Z,66.03
2022-10-03T03:53:17.761Z,66.02
2022-10-03T03:56:03.061Z,66.61
2022-10-03T03:58:40.734Z,66.40
2022-10-03T04:01:35.780Z,66.75
2022-10-03T04:04:17.631Z,66.55
2022-10-03T04:06:57.689Z,66.81
2022-10-03T04:09:57.158Z,66.17
2022-10-03T04:12:46.084Z,66.42
2022-10-03T04:15:31.531Z,66.25
2022-10-03T04:18:33.437Z,65.91
2022-10-03T04:21:31.134Z,65.96
2022-10-03T04:24:38.023Z,66.07
2022-10-03T04:27:21.941Z,66.41
2022-10-03T04:30:03.779Z,66.21
2022-10-03T04:32:57.457Z,66.26
2022-10-03T04:35:48.164Z,66.34
2022-10-03T04:38:22.311Z,66.48
2022-10-03T04:40:58.804Z,66.37
2022-10-03T04:43:41.707Z,66.69
2022-10-03T04:46:27.159Z,66.11
2022-10-03T04:49:04.347Z,66.34
2022-10-03T04:51:54.614Z,66.59
2022-10-03T04:54:30.636Z,66.42
2022-10-03T04:57:06.081Z,66.29
2022-10-03T04:59:52.788Z,65.74
2022-10-03T05:02:33.853Z,65.97
2022-10-03T05:05:17.904Z,65.77
2022-10-03T05:07:54.499Z,65.67
2022-10-03T05:10:32.142Z,65.61
2022-10-03T05:13:08.551Z,65.43
2022-10-03T05:15:49.886Z,65.73
2022-10-03T05:18:27.021Z,65.46
2022-10-03T05:21:05.435Z,65.22
2022-10-03T05:23:46.226Z,64.69
2022-10-03T05:26:44.192Z,64.64
2022-10-03T05:29:18.654Z,64.62
2022-10-03T05:31:57.104Z,64.61
2022-10-03T05:34:36.479Z,64.52
2022-10-03T05:37:25.590Z,64.32
2022-10-03T05:39:58.575Z,64.29
2022-10-03T05:42:40.968Z,64.37
2022-10-03T05:45:28.741Z,64.36
2022-10-03T05:48:13.190Z,64.34
2022-10-03T05:51:17.149Z,64.58
2022-10-03T05:54:17.746Z,64.55
2022-10-03T05:57:17.199Z,64.58
2022-10-03T06:00:06.305Z,64.40
2022-10-03T06:02:58.178Z,64.29
2022-10-03T06:05:32.853Z,64.40
2022-10-03T06:08:37.013Z,65.08
2022-10-03T06:11:20.345Z,64.20
2022-10-03T06:14:23.928Z,64.08
2022-10-03T06:17:05.103Z,64.51
2022-10-03T06:19:49.672Z,64.31
2022-10-03T06:23:06.210Z,64.79
2022-10-03T06:26:10.857Z,65.00
2022-10-03T06:29:10.111Z,64.83
2022-10-03T06:32:14.847Z,64.95
2022-10-03T06:35:15.707Z,65.13
2022-10-03T06:38:10.992Z,64.95
2022-10-03T06:41:25.356Z,65.09
2022-10-03T06:44:12.541Z,65.06
2022-10-03T06:47:16.184Z,65.07
2022-10-03T06:50:09.275Z,64.59
2022-10-03T06:53:02.993Z,65.11
2022-10-03T06:56:03.623Z,65.23
2022-10-03T06:58:59.139Z,65.31
2022-10-03T07:02:23.626Z,65.29
2022-10-03T07:05:25.155Z,65.08
2022-10-03T07:08:36.622Z,65.08
2022-10-03T07:11:26.723Z,65.33
2022-10-03T07:14:27.447Z,65.64
2022-10-03T07:17:23.054Z,65.26
2022-10-03T07:20:13.116Z,65.27
2022-10-03T07:23:07.084Z,65.06
2022-10-03T07:26:24.777Z,65.29
2022-10-03T07:29:21.238Z,65.28
2022-10-03T07:32:03.784Z,65.72
2022-10-03T07:35:12.119Z,65.87
2022-10-03T07:38:22.738Z,65.80
2022-10-03T07:41:15.930Z,66.19
2022-10-03T07:44:22.199Z,66.00
2022-10-03T07:47:28.453Z,65.67
2022-10-03T07:50:31.191Z,66.27
2022-10-03T07:53:26.728Z,66.10
2022-10-03T07:56:17.653Z,66.32
2022-10-03T07:59:04.870Z,66.41
2022-10-03T08:01:47.260Z,66.20
2022-10-03T08:04:39.263Z,66.18
2022-10-03T08:07:26.611Z,66.10
2022-10-03T08:10:20.159Z,66.62
2022-10-03T08:13:20.392Z,66.76
2022-10-03T08:16:08.407Z,66.55
2022-10-03T08:19:11.021Z,66.77
2022-10-03T08:21:55.747Z,66.80
2022-10-03T08:24:49.957Z,66.81
2022-10-03T08:27:24.939Z,66.42
2022-10-03T08:30:15.237Z,66.67
2022-10-03T08:33:00.702Z,66.27
2022-10-03T08:35:38.802Z,66.24
2022-10-03T08:38:36.685Z,65.94
2022-10-03T08:41:42.198Z,65.97
2022-10-03T08:44:42.414Z,65.68
2022-10-03T08:47:40.091Z,65.70
2022-10-03T08:50:50.086Z,65.21
2022-10-03T08:53:51.941Z,65.33
2022-10-03T08:56:23.481Z,64.32
2022-10-03T08:59:14.917Z,64.15
2022-10-03T09:02:16.171Z,63.71
2022-10-03T09:05:36.385Z,63.62
2022-10-03T09:08:31.598Z,63.52
2022-10-03T09:11:32.886Z,63.83
2022-10-03T09:14:32.313Z,63.20
2022-10-03T09:17:31.225Z,63.04
2022-10-03T09:20:35.417Z,62.92
2022-10-03T09:23:38.792Z,62.28
2022-10-03T09:26:30.889Z,61.58
2022-10-03T09:29:28.913Z,61.04
2022-10-03T09:32:33.218Z,61.48
2022-10-03T09:35:26.163Z,61.17
2022-10-03T09:38:42.322Z,60.43
2022-10-03T09:41:48.048Z,61.68
2022-10-03T09:44:45.668Z,60.49
2022-10-03T09:47:42.694Z,60.18
2022-10-03T09:51:04.440Z,60.63
2022-10-03T09:54:12.302Z,59.90
2022-10-03T09:57:22.728Z,59.63
2022-10-03T10:00:03.953Z,60.47
2022-10-03T10:03:09.837Z,61.04
2022-10-03T10:06:05.355Z,60.37
2022-10-03T10:09:08.231Z,60.84
2022-10-03T10:12:12.096Z,60.24
2022-10-03T10:15:09.966Z,59.09
2022-10-03T10:18:15.419Z,57.68
2022-10-03T10:21:18.546Z,58.76
2022-10-03T10:23:57.549Z,57.99
2022-10-03T10:27:09.894Z,58.39
2022-10-03T10:30:03.798Z,58.11
2022-10-03T10:33:24.261Z,56.98
2022-10-03T10:36:38.218Z,56.40
2022-10-03T10:39:49.336Z,56.32
2022-10-03T10:42:44.052Z,55.89
2022-10-03T10:45:40.193Z,55.88
2022-10-03T10:48:53.268Z,55.65
2022-10-03T10:52:03.239Z,56.05
2022-10-03T10:55:25.102Z,56.67
2022-10-03T10:58:24.003Z,58.56
2022-10-03T11:01:26.051Z,57.58
2022-10-03T11:04:39.050Z,57.16
2022-10-03T11:07:36.702Z,56.89
2022-10-03T11:10:36.510Z,57.44
2022-10-03T11:13:52.606Z,56.94
2022-10-03T11:17:11.068Z,55.88
2022-10-03T11:20:15.501Z,57.27
2022-10-03T11:23:15.977Z,56.61
2022-10-03T11:26:40.098Z,54.33
2022-10-03T11:29:39.465Z,54.30
2022-10-03T11:32:56.324Z,54.70
2022-10-03T11:35:54.178Z,55.46
2022-10-03T11:38:25.705Z,54.86
2022-10-03T11:41:06.296Z,54.84
2022-10-03T11:44:05.018Z,54.55
2022-10-03T11:46:56.674Z,55.66
2022-10-03T11:49:51.730Z,54.62
2022-10-03T11:52:29.842Z,55.62
2022-10-03T11:55:10.230Z,55.80
2022-10-03T11:57:40.771Z,56.57
2022-10-03T12:00:17.321Z,56.29
2022-10-03T12:03:13.696Z,56.29
2022-10-03T12:06:13.757Z,55.06
2022-10-03T12:08:56.089Z,55.16
2022-10-03T12:11:28.261Z,53.70
2022-10-03T12:14:18.381Z,53.80
2022-10-03T12:16:58.728Z,53.81
2022-10-03T12:19:33.094Z,53.45
2022-10-03T12:22:14.119Z,53.53
2022-10-03T12:24:45.704Z,54.16
2022-10-03T12:27:22.995Z,54.84
2022-10-03T12:29:58.259Z,54.36
2022-10-03T12:32:33.526Z,53.53
2022-10-03T12:35:14.830Z,54.16
2022-10-03T12:37:55.194Z,53.70
2022-10-03T12:40:27.862Z,52.98
2022-10-03T12:43:17.517Z,53.69
2022-10-03T12:45:50.446Z,54.02
2022-10-03T12:48:42.970Z,53.78
2022-10-03T12:51:23.236Z,53.92
2022-10-03T12:54:06.390Z,54.27
2022-10-03T12:56:46.306Z,52.74
2022-10-03T12:59:23.294Z,52.26
2022-10-03T13:02:25.123Z,52.26
2022-10-03T13:05:28.881Z,53.25
2022-10-03T13:08:02.693Z,53.48
2022-10-03T13:10:41.851Z,52.96
2022-10-03T13:13:25.502Z,52.03
2022-10-03T13:16:13.603Z,51.93
2022-10-03T13:18:49.746Z,52.63
2022-10-03T13:21:44.359Z,53.02
2022-10-03T13:24:23.309Z,53.60
2022-10-03T13:27:03.816Z,52.94
2022-10-03T13:29:39.039Z,51.38
2022-10-03T13:32:16.336Z,50.83
2022-10-03T13:35:25.253Z,50.96
2022-10-03T13:38:31.723Z,50.82
2022-10-03T13:41:10.138Z,52.67
2022-10-03T13:43:42.994Z,52.95
2022-10-03T13:46:16.673Z,52.93
2022-10-03T13:48:54.200Z,52.72
2022-10-03T13:51:31.682Z,52.05
2022-10-03T13:54:04.968Z,51.41
2022-10-03T13:56:44.802Z,51.55
2022-10-03T13:59:35.140Z,52.25
2022-10-03T14:02:22.115Z,52.11
2022-10-03T14:05:18.706Z,52.25
2022-10-03T14:07:55.004Z,52.49
2022-10-03T14:10:37.607Z,52.74
2022-10-03T14:13:19.666Z,53.54
2022-10-03T14:15:53.915Z,53.41
2022-10-03T14:18:33.157Z,53.56
2022-10-03T14:21:30.681Z,53.13
2022-10-03T14:24:10.683Z,53.55
2022-10-03T14:26:46.657Z,54.21
2022-10-03T14:29:22.638Z,53.58
2022-10-03T14:31:59.239Z,53.79
2022-10-03T14:34:40.002Z,54.07
2022-10-03T14:37:20.042Z,53.86
2022-10-03T14:39:58.832Z,53.89
2022-10-03T14:42:44.945Z,53.71
2022-10-03T14:45:17.792Z,53.49
2022-10-03T14:47:52.203Z,53.99
2022-10-03T14:50:23.854Z,53.30
2022-10-03T14:53:02.093Z,53.32
2022-10-03T14:55:33.751Z,53.30
2022-10-03T14:58:10.622Z,53.76
2022-10-03T15:00:44.098Z,54.23
2022-10-03T15:03:30.670Z,54.67
2022-10-03T15:06:19.801Z,53.77
2022-10-03T15:08:50.904Z,52.06
2022-10-03T15:11:27.239Z,51.54
2022-10-03T15:13:57.994Z,52.39
2022-10-03T15:16:27.254Z,52.48
2022-10-03T15:19:06.999Z,51.96
2022-10-03T15:21:36.021Z,52.50
2022-10-03T15:24:07.260Z,52.49
2022-10-03T15:26:40.290Z,53.04
2022-10-03T15:29:15.623Z,53.20
2022-10-03T15:31:48.441Z,53.38
2022-10-03T15:34:22.910Z,52.96
2022-10-03T15:36:56.413Z,53.33
2022-10-03T15:39:26.810Z,53.66
2022-10-03T15:42:00.227Z,53.93
2022-10-03T15:44:33.785Z,53.84
2022-10-03T15:47:07.334Z,54.21
2022-10-03T15:49:39.749Z,54.00
2022-10-03T15:52:17.967Z,54.53
2022-10-03T15:54:50.060Z,54.39
2022-10-03T15:57:29.372Z,55.24
2022-10-03T16:00:03.215Z,55.08
2022-10-03T16:02:39.407Z,54.86
2022-10-03T16:05:21.498Z,55.08
2022-10-03T16:07:59.323Z,54.67
2022-10-03T16:10:30.957Z,55.20
2022-10-03T16:13:05.683Z,55.54
2022-10-03T16:15:50.262Z,55.17
2022-10-03T16:18:51.856Z,55.15
2022-10-03T16:21:43.154Z,55.43
2022-10-03T16:24:22.023Z,55.40
2022-10-03T16:26:55.724Z,55.75
2022-10-03T16:29:28.499Z,54.95
2022-10-03T16:32:03.829Z,55.80
2022-10-03T16:34:34.346Z,55.95
2022-10-03T16:37:06.999Z,56.07
2022-10-03T16:39:37.479Z,56.19
2022-10-03T16:42:14.461Z,56.52
2022-10-03T16:44:51.896Z,56.63
2022-10-03T16:47:35.144Z,56.56
2022-10-03T16:50:38.867Z,56.05
2022-10-03T16:53:11.306Z,56.98
2022-10-03T16:55:47.333Z,56.69
2022-10-03T16:58:20.503Z,56.63
2022-10-03T17:01:22.014Z,57.06
2022-10-03T17:03:48.944Z,57.65
2022-10-03T17:06:30.534Z,57.75
2022-10-03T17:09:04.987Z,57.20
2022-10-03T17:11:38.294Z,57.04
2022-10-03T17:14:09.873Z,57.73
2022-10-03T17:16:44.980Z,58.43
2022-10-03T17:19:20.640Z,58.07
2022-10-03T17:21:54.643Z,58.39
2022-10-03T17:24:36.045Z,58.57
2022-10-03T17:27:12.041Z,58.64
2022-10-03T17:29:49.026Z,58.93
2022-10-03T17:32:24.347Z,58.63
2022-10-03T17:34:59.577Z,58.66
2022-10-03T17:37:51.956Z,59.20
2022-10-03T17:40:24.193Z,59.30
2022-10-03T17:42:56.370Z,59.27
2022-10-03T17:45:33.957Z,59.70
2022-10-03T17:48:11.536Z,59.34
2022-10-03T17:50:52.530Z,59.69
2022-10-03T17:53:23.065Z,59.65
2022-10-03T17:55:59.596Z,59.97
2022-10-03T17:58:31.593Z,59.64
2022-10-03T18:01:08.319Z,59.48
2022-10-03T18:03:42.440Z,58.61
2022-10-03T18:06:36.304Z,58.91
2022-10-03T18:09:11.511Z,59.73
2022-10-03T18:11:42.650Z,60.20
2022-10-03T18:14:20.855Z,60.17
2022-10-03T18:16:56.782Z,59.90
2022-10-03T18:19:42.730Z,60.06
2022-10-03T18:22:17.948Z,60.07
2022-10-03T18:24:55.161Z,60.70
2022-10-03T18:28:04.858Z,60.73
2022-10-03T18:30:38.755Z,60.39
2022-10-03T18:33:12.457Z,60.89
2022-10-03T18:35:41.516Z,60.67
2022-10-03T18:38:15.068Z,60.06
2022-10-03T18:40:47.523Z,60.97
2022-10-03T18:43:30.441Z,61.10
2022-10-03T18:46:07.751Z,61.02
2022-10-03T18:48:44.194Z,61.06
2022-10-03T18:51:16.977Z,61.09
2022-10-03T18:53:51.386Z,60.77
2022-10-03T18:56:24.250Z,61.17
2022-10-03T18:59:16.410Z,61.82
2022-10-03T19:01:52.938Z,61.52
2022-10-03T19:04:34.737Z,61.48
2022-10-03T19:07:11.063Z,61.96
2022-10-03T19:09:45.254Z,62.10
2022-10-03T19:12:20.680Z,62.17
2022-10-03T19:15:10.421Z,61.89
2022-10-03T19:17:50.492Z,61.72
2022-10-03T19:20:24.454Z,61.55
2022-10-03T19:23:01.457Z,61.79
2022-10-03T19:25:31.279Z,62.16
2022-10-03T19:28:02.953Z,61.99
2022-10-03T19:30:34.743Z,62.20
2022-10-03T19:33:07.176Z,61.28
2022-10-03T19:35:40.973Z,61.26
2022-10-03T19:38:17.882Z,61.70
2022-10-03T19:40:55.592Z,62.09
2022-10-03T19:43:43.222Z,62.29
2022-10-03T19:46:23.414Z,62.37
2022-10-03T19:49:04.324Z,61.89
2022-10-03T19:51:32.684Z,62.41
2022-10-03T19:54:03.175Z,62.76
2022-10-03T19:56:35.937Z,62.73
2022-10-03T19:59:07.003Z,62.45
2022-10-03T20:01:45.915Z,62.10
2022-10-03T20:04:19.001Z,62.38
2022-10-03T20:06:50.738Z,62.42
2022-10-03T20:09:24.667Z,62.83
2022-10-03T20:11:56.629Z,61.88
2022-10-03T20:14:27.741Z,61.73
2022-10-03T20:17:01.080Z,62.24
2022-10-03T20:19:33.600Z,62.23
2022-10-03T20:22:05.070Z,61.89
2022-10-03T20:24:35.682Z,62.39
2022-10-03T20:27:19.582Z,62.20
2022-10-03T20:29:51.237Z,61.67
2022-10-03T20:32:21.383Z,61.67
2022-10-03T20:34:55.024Z,62.11
2022-10-03T20:37:39.782Z,62.08
2022-10-03T20:40:22.499Z,62.17
2022-10-03T20:42:54.102Z,61.91
2022-10-03T20:45:25.868Z,61.86
2022-10-03T20:48:03.170Z,61.76
2022-10-03T20:50:34.798Z,62.16
2022-10-03T20:53:04.798Z,61.72
2022-10-03T20:55:37.561Z,62.34
2022-10-03T20:58:17.076Z,62.30
2022-10-03T21:00:49.340Z,62.01
2022-10-03T21:03:29.858Z,61.51
2022-10-03T21:06:00.373Z,61.77
2022-10-03T21:08:31.156Z,61.65
2022-10-03T21:11:02.161Z,61.74
2022-10-03T21:13:34.384Z,61.57
2022-10-03T21:16:05.983Z,61.01
2022-10-03T21:18:40.422Z,61.12
2022-10-03T21:21:13.782Z,61.99
2022-10-03T21:23:48.085Z,61.71
2022-10-03T21:26:22.360Z,61.53
2022-10-03T21:28:50.598Z,61.86
2022-10-03T21:31:42.578Z,61.56
2022-10-03T21:34:22.616Z,62.35
2022-10-03T21:36:57.870Z,61.57
2022-10-03T21:39:46.077Z,61.68
2022-10-03T21:42:22.845Z,61.80
2022-10-03T21:45:19.016Z,61.66
2022-10-03T21:47:51.587Z,62.25
2022-10-03T21:50:25.732Z,62.69
2022-10-03T21:53:17.604Z,62.23
2022-10-03T21:56:09.106Z,62.66
2022-10-03T21:58:59.400Z,62.55
2022-10-03T22:01:35.120Z,62.55
2022-10-03T22:04:10.357Z,62.85
2022-10-03T22:06:47.305Z,63.23
2022-10-03T22:09:16.608Z,63.20
2022-10-03T22:11:50.522Z,62.65
2022-10-03T22:14:30.691Z,62.99
2022-10-03T22:17:07.833Z,62.86
2022-10-03T22:19:39.932Z,63.19
2022-10-03T22:22:33.025Z,63.56
2022-10-03T22:25:11.551Z,63.44
2022-10-03T22:27:46.807Z,63.72
2022-10-03T22:30:18.824Z,63.57
2022-10-03T22:32:59.301Z,63.47
2022-10-03T22:35:44.771Z,63.88
2022-10-03T22:38:15.332Z,63.75
2022-10-03T22:40:44.303Z,63.51
2022-10-03T22:43:14.432Z,63.48
2022-10-03T22:45:46.139Z,63.47
2022-10-03T22:48:19.433Z,63.77
2022-10-03T22:50:47.787Z,63.56
2022-10-03T22:53:22.968Z,63.85
2022-10-03T22:55:55.140Z,63.50
2022-10-03T22:58:25.298Z,64.19
2022-10-03T23:00:56.136Z,64.13
2022-10-03T23:03:28.127Z,63.75
2022-10-03T23:06:20.764Z,63.72
2022-10-03T23:09:01.232Z,63.72
2022-10-03T23:11:31.429Z,63.37
2022-10-03T23:14:04.818Z,63.98
2022-10-03T23:16:51.579Z,63.88
2022-10-03T23:19:40.236Z,64.39
2022-10-03T23:22:16.677Z,64.30
2022-10-03T23:24:51.579Z,64.36
2022-10-03T23:27:47.569Z,64.10
2022-10-03T23:30:54.961Z,64.44
2022-10-03T23:33:50.483Z,63.92
2022-10-03T23:36:23.363Z,63.88
2022-10-03T23:39:02.792Z,64.63
2022-10-03T23:41:48.165Z,64.20
2022-10-03T23:44:35.160Z,64.74
2022-10-03T23:47:06.153Z,65.07
2022-10-03T23:49:36.437Z,65.04
2022-10-03T23:52:05.894Z,64.35
2022-10-03T23:54:34.411Z,64.11
2022-10-03T23:57:08.873Z,64.43
2022-10-03T23:59:39.108Z,64.69
